DAL2209 KMSP-KMCO
Flight info
| Callsign | DAL2209 |
|---|---|
| Flight time | 2h 53m |
| Altitude | 35000 |
| Route | ZMBRO7 ODI J30 BRIBE EDENS ENL PLESS Q19 HITMN THRSR ZJAYX GRNCH5 |
| Aircraft | A321/M-SDE3FGHIRWY/LB1 |
Departure
| Time | 2026-04-23 15:41 |
|---|---|
| Airport | Minneapolis–Saint Paul International Airport / Wold–Chamberlain Field (KMSP) |
Arrival
| Time | 2026-04-23 18:35 |
|---|---|
| Airport | Orlando International Airport (KMCO) |
| Time | Latitude | Longitude | Altitude | Speed | Heading |
|---|---|---|---|---|---|
| 2026-04-23 14:39 | 44.87860 | -93.20620 | 856 ft | 0 kts | 359° |
| 2026-04-23 15:30 | 44.87847 | -93.20620 | 855 ft | 4 kts | 359° |
| 2026-04-23 15:30 | 44.87820 | -93.20619 | 855 ft | 4 kts | 359° |
| 2026-04-23 15:30 | 44.87793 | -93.20619 | 855 ft | 4 kts | 359° |
| 2026-04-23 15:31 | 44.87781 | -93.20618 | 855 ft | 0 kts | 359° |
| 2026-04-23 15:33 | 44.87786 | -93.20619 | 855 ft | 3 kts | 348° |
| 2026-04-23 15:33 | 44.87801 | -93.20673 | 855 ft | 8 kts | 282° |
| 2026-04-23 15:34 | 44.87829 | -93.20740 | 855 ft | 9 kts | 303° |
| 2026-04-23 15:34 | 44.87869 | -93.20826 | 855 ft | 11 kts | 303° |
| 2026-04-23 15:34 | 44.87913 | -93.20921 | 855 ft | 12 kts | 303° |
| 2026-04-23 15:34 | 44.87963 | -93.21028 | 855 ft | 13 kts | 303° |
| 2026-04-23 15:35 | 44.88007 | -93.21139 | 855 ft | 13 kts | 284° |
| 2026-04-23 15:35 | 44.88014 | -93.21259 | 855 ft | 12 kts | 274° |
| 2026-04-23 15:35 | 44.88024 | -93.21371 | 855 ft | 11 kts | 292° |
| 2026-04-23 15:35 | 44.88065 | -93.21471 | 855 ft | 13 kts | 301° |
| 2026-04-23 15:36 | 44.88111 | -93.21579 | 855 ft | 13 kts | 301° |
| 2026-04-23 15:36 | 44.88155 | -93.21681 | 855 ft | 12 kts | 301° |
| 2026-04-23 15:36 | 44.88197 | -93.21779 | 855 ft | 11 kts | 302° |
| 2026-04-23 15:36 | 44.88237 | -93.21869 | 855 ft | 11 kts | 303° |
| 2026-04-23 15:37 | 44.88279 | -93.21965 | 855 ft | 13 kts | 301° |
| 2026-04-23 15:37 | 44.88325 | -93.22070 | 855 ft | 12 kts | 301° |
| 2026-04-23 15:37 | 44.88354 | -93.22137 | 855 ft | 12 kts | 301° |
| 2026-04-23 15:37 | 44.88408 | -93.22262 | 855 ft | 11 kts | 301° |
| 2026-04-23 15:38 | 44.88446 | -93.22352 | 855 ft | 10 kts | 301° |
| 2026-04-23 15:38 | 44.88486 | -93.22446 | 855 ft | 12 kts | 302° |
| 2026-04-23 15:38 | 44.88532 | -93.22549 | 855 ft | 13 kts | 302° |
| 2026-04-23 15:38 | 44.88581 | -93.22658 | 855 ft | 14 kts | 302° |
| 2026-04-23 15:39 | 44.88632 | -93.22773 | 855 ft | 14 kts | 302° |
| 2026-04-23 15:39 | 44.88686 | -93.22896 | 855 ft | 15 kts | 302° |
| 2026-04-23 15:39 | 44.88742 | -93.23025 | 855 ft | 16 kts | 301° |
| 2026-04-23 15:39 | 44.88800 | -93.23162 | 855 ft | 17 kts | 300° |
| 2026-04-23 15:40 | 44.88852 | -93.23289 | 855 ft | 11 kts | 293° |
| 2026-04-23 15:40 | 44.88815 | -93.23367 | 855 ft | 10 kts | 213° |
| 2026-04-23 15:40 | 44.88758 | -93.23368 | 855 ft | 8 kts | 133° |
| 2026-04-23 15:40 | 44.88718 | -93.23282 | 855 ft | 18 kts | 122° |
| 2026-04-23 15:41 | 44.88523 | -93.22833 | 856 ft | 89 kts | 121° |
| 2026-04-23 15:41 | 44.88096 | -93.21829 | 856 ft | 148 kts | 123° |
| 2026-04-23 15:41 | 44.87534 | -93.20458 | 1215 ft | 161 kts | 125° |
| 2026-04-23 15:41 | 44.86982 | -93.19118 | 1922 ft | 156 kts | 125° |
| 2026-04-23 15:42 | 44.86413 | -93.17790 | 2422 ft | 168 kts | 129° |
| 2026-04-23 15:42 | 44.85597 | -93.16551 | 2660 ft | 178 kts | 145° |
| 2026-04-23 15:42 | 44.84559 | -93.15472 | 2908 ft | 192 kts | 147° |
| 2026-04-23 15:42 | 44.83439 | -93.14291 | 3135 ft | 211 kts | 145° |
| 2026-04-23 15:43 | 44.82246 | -93.12952 | 3441 ft | 228 kts | 145° |
| 2026-04-23 15:43 | 44.80973 | -93.11503 | 3817 ft | 243 kts | 145° |
| 2026-04-23 15:43 | 44.79627 | -93.09998 | 4366 ft | 250 kts | 146° |
| 2026-04-23 15:43 | 44.78245 | -93.08464 | 5029 ft | 253 kts | 147° |
| 2026-04-23 15:44 | 44.76855 | -93.06921 | 5696 ft | 256 kts | 148° |
| 2026-04-23 15:44 | 44.75448 | -93.05354 | 6363 ft | 258 kts | 149° |
| 2026-04-23 15:44 | 44.74036 | -93.03768 | 7021 ft | 261 kts | 149° |
| 2026-04-23 15:44 | 44.72610 | -93.02168 | 7632 ft | 264 kts | 149° |
| 2026-04-23 15:45 | 44.71162 | -93.00554 | 8211 ft | 267 kts | 149° |
| 2026-04-23 15:45 | 44.69706 | -92.98935 | 8760 ft | 270 kts | 149° |
| 2026-04-23 15:45 | 44.68216 | -92.97278 | 9302 ft | 273 kts | 148° |
| 2026-04-23 15:45 | 44.66737 | -92.95630 | 9825 ft | 276 kts | 148° |
| 2026-04-23 15:46 | 44.65219 | -92.93945 | 10286 ft | 282 kts | 148° |
| 2026-04-23 15:46 | 44.63637 | -92.92199 | 10501 ft | 297 kts | 148° |
| 2026-04-23 15:46 | 44.61967 | -92.90360 | 10662 ft | 313 kts | 147° |
| 2026-04-23 15:46 | 44.60219 | -92.88432 | 10826 ft | 328 kts | 147° |
| 2026-04-23 15:47 | 44.58385 | -92.86399 | 10988 ft | 343 kts | 147° |
| 2026-04-23 15:47 | 44.56477 | -92.84282 | 11150 ft | 356 kts | 146° |
| 2026-04-23 15:47 | 44.54505 | -92.82095 | 11505 ft | 363 kts | 146° |
| 2026-04-23 15:47 | 44.52520 | -92.79893 | 11967 ft | 366 kts | 146° |
| 2026-04-23 15:48 | 44.50517 | -92.77676 | 12432 ft | 369 kts | 146° |
| 2026-04-23 15:48 | 44.48491 | -92.75441 | 12910 ft | 372 kts | 146° |
| 2026-04-23 15:48 | 44.46494 | -92.73104 | 13381 ft | 378 kts | 140° |
| 2026-04-23 15:48 | 44.44845 | -92.70182 | 13851 ft | 387 kts | 128° |
| 2026-04-23 15:49 | 44.43437 | -92.66937 | 14327 ft | 391 kts | 124° |
| 2026-04-23 15:49 | 44.42116 | -92.63640 | 14781 ft | 394 kts | 123° |
| 2026-04-23 15:49 | 44.40769 | -92.60285 | 15237 ft | 397 kts | 124° |
| 2026-04-23 15:49 | 44.39377 | -92.56933 | 15679 ft | 399 kts | 125° |
| 2026-04-23 15:50 | 44.37943 | -92.53604 | 16114 ft | 401 kts | 126° |
| 2026-04-23 15:50 | 44.36485 | -92.50265 | 16546 ft | 403 kts | 126° |
| 2026-04-23 15:50 | 44.35023 | -92.46903 | 16955 ft | 406 kts | 125° |
| 2026-04-23 15:50 | 44.33559 | -92.43502 | 17364 ft | 409 kts | 125° |
| 2026-04-23 15:51 | 44.32098 | -92.40089 | 17768 ft | 411 kts | 125° |
| 2026-04-23 15:51 | 44.30623 | -92.36654 | 18153 ft | 413 kts | 125° |
| 2026-04-23 15:51 | 44.29136 | -92.33208 | 18525 ft | 416 kts | 125° |
| 2026-04-23 15:51 | 44.27629 | -92.29732 | 18886 ft | 418 kts | 125° |
| 2026-04-23 15:52 | 44.26118 | -92.26256 | 19243 ft | 421 kts | 125° |
| 2026-04-23 15:52 | 44.24598 | -92.22749 | 19601 ft | 423 kts | 125° |
| 2026-04-23 15:52 | 44.23074 | -92.19218 | 19938 ft | 426 kts | 125° |
| 2026-04-23 15:52 | 44.21557 | -92.15715 | 20268 ft | 428 kts | 125° |
| 2026-04-23 15:53 | 44.20008 | -92.12160 | 20597 ft | 431 kts | 125° |
| 2026-04-23 15:53 | 44.18437 | -92.08572 | 20917 ft | 433 kts | 125° |
| 2026-04-23 15:53 | 44.16868 | -92.04980 | 21227 ft | 436 kts | 125° |
| 2026-04-23 15:53 | 44.15292 | -92.01361 | 21532 ft | 438 kts | 125° |
| 2026-04-23 15:54 | 44.13703 | -91.97721 | 21836 ft | 440 kts | 125° |
| 2026-04-23 15:54 | 44.12109 | -91.94079 | 22129 ft | 442 kts | 125° |
| 2026-04-23 15:54 | 44.11046 | -91.91651 | 22318 ft | 444 kts | 125° |
| 2026-04-23 15:54 | 44.09432 | -91.87977 | 22600 ft | 446 kts | 126° |
| 2026-04-23 15:55 | 44.07809 | -91.84288 | 22876 ft | 448 kts | 125° |
| 2026-04-23 15:55 | 44.06196 | -91.80621 | 23146 ft | 450 kts | 125° |
| 2026-04-23 15:55 | 44.04538 | -91.76852 | 23416 ft | 452 kts | 125° |
| 2026-04-23 15:55 | 44.02897 | -91.73114 | 23674 ft | 454 kts | 125° |
| 2026-04-23 15:56 | 44.01242 | -91.69355 | 23928 ft | 456 kts | 126° |
| 2026-04-23 15:56 | 43.99572 | -91.65586 | 24182 ft | 458 kts | 125° |
| 2026-04-23 15:56 | 43.97898 | -91.61808 | 24426 ft | 460 kts | 125° |
| 2026-04-23 15:56 | 43.96216 | -91.58018 | 24673 ft | 462 kts | 125° |
| 2026-04-23 15:57 | 43.94527 | -91.54215 | 24910 ft | 464 kts | 125° |
| 2026-04-23 15:57 | 43.92852 | -91.50450 | 25140 ft | 465 kts | 125° |
| 2026-04-23 15:57 | 43.91150 | -91.46622 | 25366 ft | 467 kts | 125° |
| 2026-04-23 15:57 | 43.89446 | -91.42771 | 25601 ft | 469 kts | 125° |
| 2026-04-23 15:58 | 43.87736 | -91.38915 | 25824 ft | 470 kts | 125° |
| 2026-04-23 15:58 | 43.86018 | -91.35051 | 26038 ft | 472 kts | 125° |
| 2026-04-23 15:58 | 43.84287 | -91.31161 | 26241 ft | 473 kts | 125° |
| 2026-04-23 15:58 | 43.82557 | -91.27279 | 26445 ft | 475 kts | 125° |
| 2026-04-23 15:59 | 43.80816 | -91.23377 | 26637 ft | 477 kts | 125° |
| 2026-04-23 15:59 | 43.79067 | -91.19464 | 26825 ft | 478 kts | 125° |
| 2026-04-23 15:59 | 43.77312 | -91.15543 | 27010 ft | 480 kts | 125° |
| 2026-04-23 15:59 | 43.75552 | -91.11614 | 27189 ft | 481 kts | 125° |
| 2026-04-23 16:00 | 43.73785 | -91.07670 | 27375 ft | 482 kts | 124° |
| 2026-04-23 16:00 | 43.72018 | -91.03728 | 27618 ft | 482 kts | 124° |
| 2026-04-23 16:00 | 43.70257 | -90.99798 | 27856 ft | 482 kts | 124° |
| 2026-04-23 16:00 | 43.68512 | -90.95906 | 28108 ft | 481 kts | 124° |
| 2026-04-23 16:01 | 43.66750 | -90.91982 | 28330 ft | 481 kts | 124° |
| 2026-04-23 16:01 | 43.64983 | -90.88048 | 28540 ft | 481 kts | 124° |
| 2026-04-23 16:01 | 43.63222 | -90.84120 | 28768 ft | 481 kts | 124° |
| 2026-04-23 16:01 | 43.61457 | -90.80184 | 28986 ft | 481 kts | 124° |
| 2026-04-23 16:02 | 43.59698 | -90.76263 | 29200 ft | 481 kts | 124° |
| 2026-04-23 16:02 | 43.57941 | -90.72345 | 29411 ft | 480 kts | 124° |
| 2026-04-23 16:02 | 43.56184 | -90.68426 | 29642 ft | 480 kts | 124° |
| 2026-04-23 16:02 | 43.54429 | -90.64511 | 29842 ft | 480 kts | 124° |
| 2026-04-23 16:03 | 43.52677 | -90.60593 | 30028 ft | 480 kts | 124° |
| 2026-04-23 16:03 | 43.50927 | -90.56676 | 30240 ft | 480 kts | 124° |
| 2026-04-23 16:03 | 43.49178 | -90.52757 | 30447 ft | 479 kts | 124° |
| 2026-04-23 16:03 | 43.47438 | -90.48853 | 30640 ft | 479 kts | 124° |
| 2026-04-23 16:04 | 43.45701 | -90.44944 | 30829 ft | 479 kts | 124° |
| 2026-04-23 16:04 | 43.43963 | -90.41025 | 31030 ft | 479 kts | 124° |
| 2026-04-23 16:04 | 43.42228 | -90.37108 | 31233 ft | 478 kts | 124° |
| 2026-04-23 16:04 | 43.40524 | -90.33257 | 31423 ft | 478 kts | 124° |
| 2026-04-23 16:05 | 43.39352 | -90.30606 | 31556 ft | 477 kts | 124° |
| 2026-04-23 16:05 | 43.37072 | -90.25437 | 31783 ft | 477 kts | 124° |
| 2026-04-23 16:05 | 43.35354 | -90.21532 | 31969 ft | 477 kts | 124° |
| 2026-04-23 16:05 | 43.33636 | -90.17622 | 32157 ft | 477 kts | 124° |
| 2026-04-23 16:06 | 43.31926 | -90.13726 | 32344 ft | 476 kts | 124° |
| 2026-04-23 16:06 | 43.30216 | -90.09825 | 32527 ft | 476 kts | 124° |
| 2026-04-23 16:06 | 43.28512 | -90.05931 | 32682 ft | 476 kts | 124° |
| 2026-04-23 16:06 | 43.26830 | -90.02079 | 32850 ft | 476 kts | 124° |
| 2026-04-23 16:07 | 43.25135 | -89.98189 | 33006 ft | 476 kts | 124° |
| 2026-04-23 16:07 | 43.23437 | -89.94283 | 33164 ft | 476 kts | 124° |
| 2026-04-23 16:07 | 43.21748 | -89.90385 | 33324 ft | 475 kts | 124° |
| 2026-04-23 16:07 | 43.20058 | -89.86484 | 33464 ft | 475 kts | 124° |
| 2026-04-23 16:08 | 43.18413 | -89.82684 | 33621 ft | 475 kts | 124° |
| 2026-04-23 16:08 | 43.16688 | -89.78696 | 33777 ft | 475 kts | 124° |
| 2026-04-23 16:08 | 43.15005 | -89.74801 | 33923 ft | 474 kts | 124° |
| 2026-04-23 16:08 | 43.13326 | -89.70915 | 34073 ft | 474 kts | 124° |
| 2026-04-23 16:09 | 43.11647 | -89.67021 | 34220 ft | 474 kts | 124° |
| 2026-04-23 16:09 | 43.09993 | -89.63184 | 34356 ft | 473 kts | 123° |
| 2026-04-23 16:09 | 43.08321 | -89.59303 | 34498 ft | 473 kts | 123° |
| 2026-04-23 16:09 | 43.06655 | -89.55431 | 34637 ft | 473 kts | 123° |
| 2026-04-23 16:10 | 43.04986 | -89.51547 | 34790 ft | 472 kts | 123° |
| 2026-04-23 16:10 | 43.03324 | -89.47674 | 34895 ft | 472 kts | 123° |
| 2026-04-23 16:10 | 43.01662 | -89.43799 | 34909 ft | 472 kts | 123° |
| 2026-04-23 16:11 | 42.98348 | -89.36064 | 34917 ft | 472 kts | 123° |
| 2026-04-23 16:11 | 42.95037 | -89.28327 | 34923 ft | 472 kts | 123° |
| 2026-04-23 16:12 | 42.91751 | -89.20635 | 34928 ft | 473 kts | 123° |
| 2026-04-23 16:12 | 42.88450 | -89.12884 | 34934 ft | 473 kts | 123° |
| 2026-04-23 16:13 | 42.85151 | -89.05131 | 34915 ft | 473 kts | 123° |
| 2026-04-23 16:13 | 42.80197 | -88.93471 | 34916 ft | 473 kts | 123° |
| 2026-04-23 16:14 | 42.76909 | -88.85714 | 34916 ft | 473 kts | 123° |
| 2026-04-23 16:14 | 42.73617 | -88.77944 | 34896 ft | 474 kts | 123° |
| 2026-04-23 16:15 | 42.70329 | -88.70177 | 34903 ft | 474 kts | 123° |
| 2026-04-23 16:15 | 42.67053 | -88.62414 | 34906 ft | 474 kts | 123° |
| 2026-04-23 16:16 | 42.63775 | -88.54621 | 34910 ft | 475 kts | 123° |
| 2026-04-23 16:16 | 42.60521 | -88.46878 | 34920 ft | 475 kts | 123° |
| 2026-04-23 16:17 | 42.57253 | -88.39095 | 34947 ft | 475 kts | 123° |
| 2026-04-23 16:17 | 42.53944 | -88.31333 | 34938 ft | 473 kts | 128° |
| 2026-04-23 16:18 | 42.51828 | -88.27951 | 34908 ft | 465 kts | 142° |
| 2026-04-23 16:18 | 42.49212 | -88.25452 | 34919 ft | 455 kts | 158° |
| 2026-04-23 16:18 | 42.46290 | -88.23981 | 34919 ft | 446 kts | 172° |
| 2026-04-23 16:18 | 42.43246 | -88.23516 | 34917 ft | 438 kts | 185° |
| 2026-04-23 16:19 | 42.38876 | -88.24281 | 34919 ft | 433 kts | 195° |
| 2026-04-23 16:19 | 42.32956 | -88.25893 | 34927 ft | 435 kts | 195° |
| 2026-04-23 16:20 | 42.27026 | -88.27361 | 34979 ft | 436 kts | 194° |
| 2026-04-23 16:20 | 42.21041 | -88.28785 | 35000 ft | 436 kts | 194° |
| 2026-04-23 16:21 | 42.15079 | -88.30252 | 34999 ft | 434 kts | 194° |
| 2026-04-23 16:21 | 42.09143 | -88.31698 | 34983 ft | 432 kts | 194° |
| 2026-04-23 16:22 | 42.03215 | -88.33121 | 34939 ft | 431 kts | 194° |
| 2026-04-23 16:22 | 41.97352 | -88.34540 | 34905 ft | 430 kts | 194° |
| 2026-04-23 16:23 | 41.91457 | -88.35975 | 34906 ft | 431 kts | 194° |
| 2026-04-23 16:23 | 41.85541 | -88.37393 | 34906 ft | 432 kts | 194° |
| 2026-04-23 16:24 | 41.79613 | -88.38817 | 34910 ft | 433 kts | 194° |
| 2026-04-23 16:24 | 41.73675 | -88.40249 | 34907 ft | 434 kts | 194° |
| 2026-04-23 16:25 | 41.67747 | -88.41663 | 34930 ft | 435 kts | 194° |
| 2026-04-23 16:25 | 41.61787 | -88.43080 | 34988 ft | 435 kts | 194° |
| 2026-04-23 16:26 | 41.55827 | -88.44508 | 35001 ft | 435 kts | 194° |
| 2026-04-23 16:26 | 41.49860 | -88.45931 | 34997 ft | 435 kts | 194° |
| 2026-04-23 16:27 | 41.43900 | -88.47339 | 34989 ft | 434 kts | 194° |
| 2026-04-23 16:27 | 41.37952 | -88.48750 | 34950 ft | 435 kts | 194° |
| 2026-04-23 16:28 | 41.31997 | -88.50168 | 34913 ft | 435 kts | 194° |
| 2026-04-23 16:28 | 41.26038 | -88.51575 | 34915 ft | 434 kts | 194° |
| 2026-04-23 16:29 | 41.20121 | -88.52967 | 34920 ft | 434 kts | 194° |
| 2026-04-23 16:29 | 41.14160 | -88.54371 | 34931 ft | 435 kts | 194° |
| 2026-04-23 16:30 | 41.08205 | -88.55772 | 34946 ft | 435 kts | 194° |
| 2026-04-23 16:30 | 41.02245 | -88.57166 | 34957 ft | 435 kts | 194° |
| 2026-04-23 16:31 | 40.96284 | -88.58560 | 34951 ft | 435 kts | 194° |
| 2026-04-23 16:31 | 40.90317 | -88.59954 | 34938 ft | 436 kts | 194° |
| 2026-04-23 16:32 | 40.84344 | -88.61346 | 34935 ft | 436 kts | 194° |
| 2026-04-23 16:32 | 40.78368 | -88.62742 | 34945 ft | 436 kts | 194° |
| 2026-04-23 16:33 | 40.72396 | -88.64130 | 34952 ft | 436 kts | 194° |
| 2026-04-23 16:33 | 40.66461 | -88.65509 | 34956 ft | 436 kts | 194° |
| 2026-04-23 16:34 | 40.60490 | -88.66895 | 34950 ft | 436 kts | 194° |
| 2026-04-23 16:34 | 40.54505 | -88.68272 | 34944 ft | 436 kts | 194° |
| 2026-04-23 16:35 | 40.48524 | -88.69655 | 34986 ft | 435 kts | 194° |
| 2026-04-23 16:35 | 40.42553 | -88.71027 | 34988 ft | 436 kts | 194° |
| 2026-04-23 16:36 | 40.36579 | -88.72406 | 34997 ft | 436 kts | 194° |
| 2026-04-23 16:36 | 40.30607 | -88.73770 | 35013 ft | 436 kts | 194° |
| 2026-04-23 16:37 | 40.24637 | -88.75146 | 35037 ft | 436 kts | 194° |
| 2026-04-23 16:37 | 40.18653 | -88.76511 | 35037 ft | 436 kts | 194° |
| 2026-04-23 16:38 | 40.12677 | -88.77876 | 35036 ft | 436 kts | 194° |
| 2026-04-23 16:38 | 40.06740 | -88.79232 | 35024 ft | 436 kts | 194° |
| 2026-04-23 16:39 | 40.00768 | -88.80587 | 35000 ft | 436 kts | 194° |
| 2026-04-23 16:39 | 39.94758 | -88.81947 | 34968 ft | 436 kts | 194° |
| 2026-04-23 16:40 | 39.88817 | -88.83294 | 34950 ft | 436 kts | 194° |
| 2026-04-23 16:40 | 39.82828 | -88.84655 | 34948 ft | 437 kts | 193° |
| 2026-04-23 16:41 | 39.76836 | -88.86004 | 34960 ft | 437 kts | 193° |
| 2026-04-23 16:41 | 39.70837 | -88.87361 | 34967 ft | 437 kts | 193° |
| 2026-04-23 16:42 | 39.65860 | -88.88492 | 34985 ft | 436 kts | 193° |
| 2026-04-23 16:42 | 39.59877 | -88.89826 | 35005 ft | 436 kts | 193° |
| 2026-04-23 16:43 | 39.52921 | -88.91384 | 35016 ft | 436 kts | 193° |
| 2026-04-23 16:43 | 39.46941 | -88.92733 | 35034 ft | 436 kts | 193° |
| 2026-04-23 16:44 | 39.41957 | -88.93839 | 35045 ft | 436 kts | 193° |
| 2026-04-23 16:44 | 39.35972 | -88.95186 | 35049 ft | 436 kts | 193° |
| 2026-04-23 16:45 | 39.29983 | -88.96515 | 35043 ft | 436 kts | 193° |
| 2026-04-23 16:45 | 39.24009 | -88.97836 | 35009 ft | 436 kts | 193° |
| 2026-04-23 16:46 | 39.18031 | -88.99164 | 34969 ft | 436 kts | 193° |
| 2026-04-23 16:46 | 39.12089 | -89.00486 | 34975 ft | 435 kts | 193° |
| 2026-04-23 16:47 | 39.06117 | -89.01806 | 34967 ft | 436 kts | 193° |
| 2026-04-23 16:47 | 39.00133 | -89.03137 | 34979 ft | 436 kts | 193° |
| 2026-04-23 16:48 | 38.94139 | -89.04463 | 34985 ft | 437 kts | 193° |
| 2026-04-23 16:48 | 38.88182 | -89.05767 | 35010 ft | 436 kts | 193° |
| 2026-04-23 16:49 | 38.82199 | -89.07088 | 35023 ft | 436 kts | 193° |
| 2026-04-23 16:49 | 38.76215 | -89.08399 | 35034 ft | 436 kts | 193° |
| 2026-04-23 16:50 | 38.70220 | -89.09707 | 35022 ft | 437 kts | 193° |
| 2026-04-23 16:50 | 38.64221 | -89.11025 | 35037 ft | 437 kts | 193° |
| 2026-04-23 16:51 | 38.58238 | -89.12329 | 35065 ft | 436 kts | 193° |
| 2026-04-23 16:51 | 38.52224 | -89.13654 | 35067 ft | 437 kts | 193° |
| 2026-04-23 16:52 | 38.46268 | -89.14947 | 35066 ft | 437 kts | 193° |
| 2026-04-23 16:52 | 38.40172 | -89.15329 | 35058 ft | 444 kts | 176° |
| 2026-04-23 16:53 | 38.34125 | -89.13522 | 35029 ft | 448 kts | 168° |
| 2026-04-23 16:53 | 38.28120 | -89.11376 | 34988 ft | 448 kts | 169° |
| 2026-04-23 16:54 | 38.22079 | -89.09453 | 34995 ft | 447 kts | 170° |
| 2026-04-23 16:54 | 38.16068 | -89.07585 | 34991 ft | 448 kts | 169° |
| 2026-04-23 16:55 | 38.09976 | -89.05603 | 35003 ft | 449 kts | 169° |
| 2026-04-23 16:55 | 38.03952 | -89.03657 | 35027 ft | 449 kts | 169° |
| 2026-04-23 16:56 | 37.97891 | -89.01732 | 35042 ft | 449 kts | 169° |
| 2026-04-23 16:56 | 37.91800 | -88.99790 | 35006 ft | 450 kts | 169° |
| 2026-04-23 16:57 | 37.85751 | -88.97853 | 34996 ft | 451 kts | 168° |
| 2026-04-23 16:57 | 37.79991 | -88.94632 | 34988 ft | 459 kts | 147° |
| 2026-04-23 16:58 | 37.77608 | -88.91925 | 34994 ft | 463 kts | 135° |
| 2026-04-23 16:58 | 37.75471 | -88.88867 | 34995 ft | 464 kts | 132° |
| 2026-04-23 16:58 | 37.71380 | -88.82770 | 34993 ft | 465 kts | 133° |
| 2026-04-23 16:59 | 37.66950 | -88.76564 | 35024 ft | 465 kts | 135° |
| 2026-04-23 16:59 | 37.62598 | -88.70578 | 35037 ft | 466 kts | 134° |
| 2026-04-23 17:00 | 37.58266 | -88.64491 | 35071 ft | 466 kts | 134° |
| 2026-04-23 17:00 | 37.53930 | -88.58411 | 35071 ft | 466 kts | 134° |
| 2026-04-23 17:01 | 37.49577 | -88.52359 | 35102 ft | 466 kts | 134° |
| 2026-04-23 17:01 | 37.45218 | -88.46297 | 35106 ft | 467 kts | 134° |
| 2026-04-23 17:02 | 37.40860 | -88.40244 | 35108 ft | 467 kts | 134° |
| 2026-04-23 17:02 | 37.36498 | -88.34199 | 35109 ft | 467 kts | 134° |
| 2026-04-23 17:03 | 37.32167 | -88.28207 | 35109 ft | 466 kts | 134° |
| 2026-04-23 17:03 | 37.27804 | -88.22185 | 35096 ft | 466 kts | 134° |
| 2026-04-23 17:04 | 37.23435 | -88.16165 | 35073 ft | 466 kts | 134° |
| 2026-04-23 17:04 | 37.19067 | -88.10157 | 35045 ft | 466 kts | 134° |
| 2026-04-23 17:05 | 37.14691 | -88.04154 | 35040 ft | 465 kts | 134° |
| 2026-04-23 17:05 | 37.10352 | -87.98206 | 35039 ft | 465 kts | 133° |
| 2026-04-23 17:06 | 37.05985 | -87.92227 | 35044 ft | 466 kts | 133° |
| 2026-04-23 17:06 | 37.01595 | -87.86243 | 35048 ft | 467 kts | 133° |
| 2026-04-23 17:07 | 36.97196 | -87.80243 | 35050 ft | 468 kts | 133° |
| 2026-04-23 17:07 | 36.92794 | -87.74250 | 35104 ft | 467 kts | 133° |
| 2026-04-23 17:08 | 36.88389 | -87.68276 | 35140 ft | 467 kts | 133° |
| 2026-04-23 17:08 | 36.84018 | -87.62345 | 35146 ft | 466 kts | 133° |
| 2026-04-23 17:09 | 36.79623 | -87.56401 | 35122 ft | 466 kts | 133° |
| 2026-04-23 17:09 | 36.75232 | -87.50475 | 35104 ft | 465 kts | 133° |
| 2026-04-23 17:10 | 36.70835 | -87.44545 | 35063 ft | 465 kts | 133° |
| 2026-04-23 17:10 | 36.66434 | -87.38622 | 35055 ft | 465 kts | 133° |
| 2026-04-23 17:11 | 36.62056 | -87.32743 | 35057 ft | 466 kts | 133° |
| 2026-04-23 17:11 | 36.57649 | -87.26832 | 35069 ft | 466 kts | 133° |
| 2026-04-23 17:12 | 36.53235 | -87.20931 | 35080 ft | 466 kts | 133° |
| 2026-04-23 17:12 | 36.48817 | -87.15032 | 35086 ft | 466 kts | 133° |
| 2026-04-23 17:13 | 36.44386 | -87.09127 | 35089 ft | 466 kts | 133° |
| 2026-04-23 17:13 | 36.39994 | -87.03286 | 35089 ft | 466 kts | 133° |
| 2026-04-23 17:14 | 36.35562 | -86.97402 | 35092 ft | 466 kts | 133° |
| 2026-04-23 17:14 | 36.31129 | -86.91523 | 35096 ft | 466 kts | 133° |
| 2026-04-23 17:15 | 36.26689 | -86.85647 | 35113 ft | 466 kts | 133° |
| 2026-04-23 17:15 | 36.22255 | -86.79790 | 35124 ft | 466 kts | 133° |
| 2026-04-23 17:16 | 36.17820 | -86.73942 | 35120 ft | 466 kts | 133° |
| 2026-04-23 17:16 | 36.13312 | -86.68198 | 35109 ft | 466 kts | 139° |
| 2026-04-23 17:17 | 36.08227 | -86.63311 | 35095 ft | 466 kts | 143° |
| 2026-04-23 17:17 | 36.02995 | -86.58571 | 35097 ft | 466 kts | 143° |
| 2026-04-23 17:18 | 35.95233 | -86.51335 | 35125 ft | 465 kts | 143° |
| 2026-04-23 17:19 | 35.90070 | -86.46535 | 35148 ft | 465 kts | 143° |
| 2026-04-23 17:19 | 35.84885 | -86.41752 | 35123 ft | 465 kts | 143° |
| 2026-04-23 17:20 | 35.79695 | -86.36962 | 35088 ft | 466 kts | 143° |
| 2026-04-23 17:21 | 35.69370 | -86.27442 | 35121 ft | 465 kts | 143° |
| 2026-04-23 17:21 | 35.61580 | -86.20287 | 35085 ft | 466 kts | 143° |
| 2026-04-23 17:22 | 35.53796 | -86.13153 | 35129 ft | 465 kts | 143° |
| 2026-04-23 17:23 | 35.46000 | -86.06026 | 35114 ft | 465 kts | 143° |
| 2026-04-23 17:24 | 35.38237 | -85.98951 | 35139 ft | 465 kts | 143° |
| 2026-04-23 17:24 | 35.30431 | -85.91851 | 35096 ft | 466 kts | 143° |
| 2026-04-23 17:25 | 35.22604 | -85.84747 | 35113 ft | 467 kts | 143° |
| 2026-04-23 17:26 | 35.12191 | -85.75330 | 35165 ft | 466 kts | 143° |
| 2026-04-23 17:27 | 35.04361 | -85.68261 | 35188 ft | 466 kts | 143° |
| 2026-04-23 17:27 | 34.99141 | -85.63562 | 35197 ft | 466 kts | 143° |
| 2026-04-23 17:28 | 34.93950 | -85.58895 | 35199 ft | 466 kts | 143° |
| 2026-04-23 17:28 | 34.88724 | -85.54207 | 35201 ft | 466 kts | 143° |
| 2026-04-23 17:29 | 34.83506 | -85.49532 | 35199 ft | 466 kts | 143° |
| 2026-04-23 17:30 | 34.76543 | -85.43306 | 35174 ft | 466 kts | 143° |
| 2026-04-23 17:30 | 34.67937 | -85.35628 | 35144 ft | 466 kts | 143° |
| 2026-04-23 17:31 | 34.63583 | -85.31750 | 35136 ft | 466 kts | 143° |
| 2026-04-23 17:31 | 34.58360 | -85.27103 | 35125 ft | 466 kts | 143° |
| 2026-04-23 17:32 | 34.53122 | -85.22460 | 35121 ft | 466 kts | 143° |
| 2026-04-23 17:32 | 34.47883 | -85.17812 | 35128 ft | 466 kts | 143° |
| 2026-04-23 17:33 | 34.42654 | -85.13185 | 35130 ft | 466 kts | 143° |
| 2026-04-23 17:33 | 34.37444 | -85.08584 | 35130 ft | 466 kts | 143° |
| 2026-04-23 17:34 | 34.32206 | -85.03962 | 35135 ft | 466 kts | 143° |
| 2026-04-23 17:35 | 34.24337 | -84.97030 | 35122 ft | 467 kts | 143° |
| 2026-04-23 17:35 | 34.16459 | -84.90115 | 35140 ft | 467 kts | 143° |
| 2026-04-23 17:36 | 34.11203 | -84.85510 | 35152 ft | 467 kts | 143° |
| 2026-04-23 17:36 | 34.05943 | -84.80905 | 35191 ft | 466 kts | 143° |
| 2026-04-23 17:37 | 34.00734 | -84.76352 | 35208 ft | 466 kts | 143° |
| 2026-04-23 17:38 | 33.93039 | -84.69641 | 35234 ft | 465 kts | 143° |
| 2026-04-23 17:38 | 33.87793 | -84.65078 | 35211 ft | 465 kts | 143° |
| 2026-04-23 17:39 | 33.82558 | -84.60527 | 35188 ft | 465 kts | 143° |
| 2026-04-23 17:39 | 33.77316 | -84.55975 | 35154 ft | 465 kts | 143° |
| 2026-04-23 17:40 | 33.72067 | -84.51425 | 35130 ft | 465 kts | 143° |
| 2026-04-23 17:40 | 33.66851 | -84.46917 | 35137 ft | 464 kts | 143° |
| 2026-04-23 17:41 | 33.61476 | -84.42623 | 35141 ft | 465 kts | 151° |
| 2026-04-23 17:41 | 33.52765 | -84.37440 | 35152 ft | 466 kts | 154° |
| 2026-04-23 17:42 | 33.44064 | -84.32269 | 35185 ft | 465 kts | 153° |
| 2026-04-23 17:43 | 33.38272 | -84.28791 | 35200 ft | 465 kts | 153° |
| 2026-04-23 17:43 | 33.32463 | -84.25353 | 35215 ft | 465 kts | 153° |
| 2026-04-23 17:44 | 33.26652 | -84.21908 | 35222 ft | 465 kts | 153° |
| 2026-04-23 17:44 | 33.17955 | -84.16745 | 35229 ft | 465 kts | 153° |
| 2026-04-23 17:45 | 33.09255 | -84.11605 | 35224 ft | 465 kts | 153° |
| 2026-04-23 17:46 | 33.00588 | -84.06486 | 35217 ft | 465 kts | 153° |
| 2026-04-23 17:46 | 32.94786 | -84.03073 | 35226 ft | 464 kts | 153° |
| 2026-04-23 17:47 | 32.88993 | -83.99666 | 35213 ft | 464 kts | 153° |
| 2026-04-23 17:48 | 32.80394 | -83.94615 | 35160 ft | 464 kts | 153° |
| 2026-04-23 17:48 | 32.74505 | -83.91165 | 35129 ft | 464 kts | 153° |
| 2026-04-23 17:49 | 32.68747 | -83.87796 | 35137 ft | 464 kts | 153° |
| 2026-04-23 17:49 | 32.62957 | -83.84415 | 35128 ft | 464 kts | 153° |
| 2026-04-23 17:50 | 32.57159 | -83.81034 | 35135 ft | 464 kts | 153° |
| 2026-04-23 17:50 | 32.48460 | -83.75966 | 35173 ft | 464 kts | 153° |
| 2026-04-23 17:51 | 32.42663 | -83.72596 | 35182 ft | 464 kts | 153° |
| 2026-04-23 17:52 | 32.33947 | -83.67539 | 35192 ft | 464 kts | 153° |
| 2026-04-23 17:52 | 32.25282 | -83.62518 | 35195 ft | 464 kts | 153° |
| 2026-04-23 17:53 | 32.16574 | -83.57492 | 35191 ft | 464 kts | 153° |
| 2026-04-23 17:54 | 32.10771 | -83.54146 | 35184 ft | 464 kts | 153° |
| 2026-04-23 17:54 | 32.02061 | -83.49128 | 35170 ft | 464 kts | 153° |
| 2026-04-23 17:55 | 31.93387 | -83.44147 | 35194 ft | 463 kts | 153° |
| 2026-04-23 17:56 | 31.87604 | -83.40832 | 35223 ft | 462 kts | 153° |
| 2026-04-23 17:56 | 31.78916 | -83.35855 | 35178 ft | 463 kts | 154° |
| 2026-04-23 17:57 | 31.73111 | -83.32545 | 35154 ft | 463 kts | 154° |
| 2026-04-23 17:58 | 31.64471 | -83.27609 | 35148 ft | 462 kts | 154° |
| 2026-04-23 17:58 | 31.58677 | -83.24328 | 35127 ft | 462 kts | 154° |
| 2026-04-23 17:59 | 31.52873 | -83.21104 | 35130 ft | 462 kts | 154° |
| 2026-04-23 17:59 | 31.47058 | -83.17847 | 35127 ft | 462 kts | 154° |
| 2026-04-23 18:00 | 31.41254 | -83.14597 | 35129 ft | 463 kts | 154° |
| 2026-04-23 18:00 | 31.35421 | -83.11350 | 35143 ft | 463 kts | 154° |
| 2026-04-23 18:01 | 31.29604 | -83.08102 | 35157 ft | 463 kts | 154° |
| 2026-04-23 18:01 | 31.23819 | -83.04881 | 35164 ft | 463 kts | 154° |
| 2026-04-23 18:02 | 31.18977 | -83.02198 | 35165 ft | 463 kts | 154° |
| 2026-04-23 18:02 | 31.12183 | -82.98419 | 35161 ft | 463 kts | 154° |
| 2026-04-23 18:03 | 31.06356 | -82.95186 | 35152 ft | 463 kts | 155° |
| 2026-04-23 18:03 | 31.00518 | -82.91966 | 35140 ft | 463 kts | 155° |
| 2026-04-23 18:04 | 30.94702 | -82.88745 | 35122 ft | 463 kts | 155° |
| 2026-04-23 18:04 | 30.88978 | -82.85406 | 35107 ft | 463 kts | 148° |
| 2026-04-23 18:05 | 30.83810 | -82.80961 | 35109 ft | 461 kts | 141° |
| 2026-04-23 18:05 | 30.78820 | -82.76302 | 35110 ft | 459 kts | 141° |
| 2026-04-23 18:06 | 30.73886 | -82.71840 | 35746 ft | 426 kts | 143° |
| 2026-04-23 18:06 | 30.71538 | -82.69784 | 36082 ft | 425 kts | 143° |
| 2026-04-23 18:06 | 30.69123 | -82.67710 | 35741 ft | 437 kts | 144° |
| 2026-04-23 18:06 | 30.66621 | -82.65605 | 35407 ft | 450 kts | 144° |
| 2026-04-23 18:07 | 30.64040 | -82.63475 | 35085 ft | 462 kts | 144° |
| 2026-04-23 18:07 | 30.59086 | -82.58674 | 35100 ft | 465 kts | 139° |
| 2026-04-23 18:08 | 30.54979 | -82.54706 | 35134 ft | 464 kts | 142° |
| 2026-04-23 18:08 | 30.48946 | -82.49469 | 35153 ft | 464 kts | 143° |
| 2026-04-23 18:09 | 30.43809 | -82.44915 | 35159 ft | 465 kts | 142° |
| 2026-04-23 18:09 | 30.38716 | -82.40293 | 35160 ft | 465 kts | 142° |
| 2026-04-23 18:10 | 30.33589 | -82.35728 | 35161 ft | 465 kts | 143° |
| 2026-04-23 18:10 | 30.28455 | -82.31175 | 35135 ft | 465 kts | 143° |
| 2026-04-23 18:11 | 30.23339 | -82.26607 | 35108 ft | 464 kts | 143° |
| 2026-04-23 18:11 | 30.17679 | -82.23183 | 35099 ft | 457 kts | 166° |
| 2026-04-23 18:12 | 30.11471 | -82.21889 | 35098 ft | 451 kts | 173° |
| 2026-04-23 18:12 | 30.05321 | -82.20813 | 35099 ft | 450 kts | 172° |
| 2026-04-23 18:12 | 30.02236 | -82.20204 | 34831 ft | 451 kts | 171° |
| 2026-04-23 18:13 | 29.99139 | -82.19572 | 34530 ft | 452 kts | 171° |
| 2026-04-23 18:13 | 29.96037 | -82.18942 | 34024 ft | 453 kts | 171° |
| 2026-04-23 18:13 | 29.92919 | -82.18324 | 33348 ft | 454 kts | 172° |
| 2026-04-23 18:13 | 29.89807 | -82.17719 | 32691 ft | 454 kts | 172° |
| 2026-04-23 18:14 | 29.87746 | -82.17313 | 32239 ft | 455 kts | 172° |
| 2026-04-23 18:14 | 29.83567 | -82.16479 | 31324 ft | 455 kts | 171° |
| 2026-04-23 18:14 | 29.80450 | -82.15850 | 30656 ft | 455 kts | 171° |
| 2026-04-23 18:14 | 29.77328 | -82.15223 | 29966 ft | 455 kts | 172° |
| 2026-04-23 18:15 | 29.74206 | -82.14605 | 29213 ft | 456 kts | 172° |
| 2026-04-23 18:15 | 29.71075 | -82.13983 | 28532 ft | 456 kts | 171° |
| 2026-04-23 18:15 | 29.67959 | -82.13362 | 27902 ft | 453 kts | 172° |
| 2026-04-23 18:15 | 29.64858 | -82.12745 | 27234 ft | 452 kts | 172° |
| 2026-04-23 18:16 | 29.61800 | -82.12139 | 26598 ft | 450 kts | 172° |
| 2026-04-23 18:16 | 29.58713 | -82.11523 | 25956 ft | 448 kts | 172° |
| 2026-04-23 18:16 | 29.55653 | -82.10914 | 25333 ft | 446 kts | 172° |
| 2026-04-23 18:17 | 29.49565 | -82.09698 | 24033 ft | 441 kts | 172° |
| 2026-04-23 18:17 | 29.46542 | -82.09098 | 23405 ft | 439 kts | 172° |
| 2026-04-23 18:17 | 29.43546 | -82.08513 | 22782 ft | 436 kts | 172° |
| 2026-04-23 18:17 | 29.40567 | -82.07930 | 22143 ft | 433 kts | 172° |
| 2026-04-23 18:18 | 29.38594 | -82.07539 | 21715 ft | 432 kts | 172° |
| 2026-04-23 18:18 | 29.34676 | -82.06761 | 20872 ft | 429 kts | 172° |
| 2026-04-23 18:18 | 29.31759 | -82.06158 | 20359 ft | 422 kts | 168° |
| 2026-04-23 18:18 | 29.29039 | -82.05017 | 20073 ft | 411 kts | 155° |
| 2026-04-23 18:19 | 29.26544 | -82.03521 | 19823 ft | 399 kts | 152° |
| 2026-04-23 18:19 | 29.24923 | -82.02469 | 19474 ft | 395 kts | 151° |
| 2026-04-23 18:19 | 29.22575 | -82.00907 | 18762 ft | 396 kts | 151° |
| 2026-04-23 18:19 | 29.20189 | -81.99338 | 18137 ft | 394 kts | 152° |
| 2026-04-23 18:20 | 29.17802 | -81.97819 | 17554 ft | 391 kts | 152° |
| 2026-04-23 18:20 | 29.15435 | -81.96348 | 17071 ft | 386 kts | 153° |
| 2026-04-23 18:20 | 29.13075 | -81.94890 | 16471 ft | 384 kts | 153° |
| 2026-04-23 18:20 | 29.10739 | -81.93437 | 15948 ft | 379 kts | 152° |
| 2026-04-23 18:21 | 29.08435 | -81.91992 | 15421 ft | 376 kts | 152° |
| 2026-04-23 18:21 | 29.06256 | -81.90367 | 14875 ft | 374 kts | 141° |
| 2026-04-23 18:21 | 29.04330 | -81.88407 | 14404 ft | 369 kts | 138° |
| 2026-04-23 18:21 | 29.02480 | -81.86380 | 13818 ft | 367 kts | 136° |
| 2026-04-23 18:22 | 29.00668 | -81.84354 | 13363 ft | 362 kts | 136° |
| 2026-04-23 18:22 | 28.98864 | -81.82367 | 12912 ft | 357 kts | 137° |
| 2026-04-23 18:22 | 28.97231 | -81.80293 | 12704 ft | 346 kts | 130° |
| 2026-04-23 18:22 | 28.95752 | -81.78159 | 12280 ft | 341 kts | 128° |
| 2026-04-23 18:23 | 28.94311 | -81.75992 | 11707 ft | 341 kts | 128° |
| 2026-04-23 18:23 | 28.91531 | -81.71781 | 11265 ft | 319 kts | 128° |
| 2026-04-23 18:24 | 28.88930 | -81.67936 | 10910 ft | 297 kts | 128° |
| 2026-04-23 18:24 | 28.87677 | -81.66094 | 10455 ft | 296 kts | 128° |
| 2026-04-23 18:24 | 28.86417 | -81.64237 | 10062 ft | 293 kts | 128° |
| 2026-04-23 18:25 | 28.84029 | -81.60701 | 9329 ft | 286 kts | 127° |
| 2026-04-23 18:25 | 28.82812 | -81.58898 | 8917 ft | 284 kts | 127° |
| 2026-04-23 18:25 | 28.81611 | -81.57125 | 8517 ft | 281 kts | 127° |
| 2026-04-23 18:25 | 28.80441 | -81.55395 | 8356 ft | 268 kts | 127° |
| 2026-04-23 18:26 | 28.79344 | -81.53769 | 8214 ft | 256 kts | 126° |
| 2026-04-23 18:26 | 28.78326 | -81.52096 | 7896 ft | 251 kts | 123° |
| 2026-04-23 18:26 | 28.77409 | -81.50446 | 7520 ft | 249 kts | 122° |
| 2026-04-23 18:26 | 28.76498 | -81.48780 | 7136 ft | 247 kts | 122° |
| 2026-04-23 18:27 | 28.75603 | -81.47151 | 6905 ft | 238 kts | 122° |
| 2026-04-23 18:27 | 28.74714 | -81.45570 | 6580 ft | 235 kts | 123° |
| 2026-04-23 18:27 | 28.73831 | -81.44019 | 6221 ft | 233 kts | 123° |
| 2026-04-23 18:27 | 28.73057 | -81.42408 | 5834 ft | 232 kts | 106° |
| 2026-04-23 18:28 | 28.72836 | -81.40590 | 5460 ft | 231 kts | 94° |
| 2026-04-23 18:28 | 28.72715 | -81.38770 | 5090 ft | 230 kts | 97° |
| 2026-04-23 18:28 | 28.72460 | -81.36976 | 4722 ft | 228 kts | 102° |
| 2026-04-23 18:28 | 28.72137 | -81.35214 | 4359 ft | 227 kts | 102° |
| 2026-04-23 18:29 | 28.71834 | -81.33453 | 4005 ft | 225 kts | 101° |
| 2026-04-23 18:29 | 28.71569 | -81.31707 | 3653 ft | 224 kts | 100° |
| 2026-04-23 18:29 | 28.71301 | -81.29961 | 3295 ft | 223 kts | 103° |
| 2026-04-23 18:29 | 28.70596 | -81.28423 | 2974 ft | 223 kts | 137° |
| 2026-04-23 18:30 | 28.69216 | -81.27682 | 2955 ft | 228 kts | 172° |
| 2026-04-23 18:30 | 28.67635 | -81.27904 | 2976 ft | 232 kts | 192° |
| 2026-04-23 18:30 | 28.66058 | -81.28262 | 2980 ft | 230 kts | 185° |
| 2026-04-23 18:30 | 28.64461 | -81.28408 | 2981 ft | 230 kts | 180° |
| 2026-04-23 18:31 | 28.62865 | -81.28447 | 2982 ft | 229 kts | 178° |
| 2026-04-23 18:31 | 28.61273 | -81.28444 | 2979 ft | 226 kts | 177° |
| 2026-04-23 18:31 | 28.59756 | -81.28419 | 2986 ft | 210 kts | 177° |
| 2026-04-23 18:31 | 28.58356 | -81.28403 | 2837 ft | 192 kts | 177° |
| 2026-04-23 18:32 | 28.57091 | -81.28391 | 2585 ft | 173 kts | 176° |
| 2026-04-23 18:32 | 28.55938 | -81.28379 | 2360 ft | 158 kts | 176° |
| 2026-04-23 18:32 | 28.54863 | -81.28367 | 2159 ft | 152 kts | 176° |
| 2026-04-23 18:32 | 28.53801 | -81.28354 | 1956 ft | 153 kts | 176° |
| 2026-04-23 18:33 | 28.52740 | -81.28344 | 1753 ft | 152 kts | 176° |
| 2026-04-23 18:33 | 28.51677 | -81.28333 | 1549 ft | 152 kts | 176° |
| 2026-04-23 18:33 | 28.50628 | -81.28323 | 1348 ft | 154 kts | 176° |
| 2026-04-23 18:33 | 28.49550 | -81.28312 | 1138 ft | 153 kts | 177° |
| 2026-04-23 18:34 | 28.48496 | -81.28300 | 930 ft | 153 kts | 176° |
| 2026-04-23 18:34 | 28.47445 | -81.28305 | 716 ft | 148 kts | 176° |
| 2026-04-23 18:34 | 28.46425 | -81.28300 | 508 ft | 147 kts | 176° |
| 2026-04-23 18:34 | 28.45403 | -81.28268 | 330 ft | 147 kts | 174° |
| 2026-04-23 18:35 | 28.44375 | -81.28257 | 145 ft | 146 kts | 176° |
| 2026-04-23 18:35 | 28.43425 | -81.28244 | 111 ft | 114 kts | 180° |
| 2026-04-23 18:35 | 28.42942 | -81.28237 | 110 ft | 34 kts | 176° |
| 2026-04-23 18:35 | 28.42712 | -81.28231 | 110 ft | 28 kts | 181° |
| 2026-04-23 18:36 | 28.42543 | -81.28292 | 110 ft | 24 kts | 239° |
| 2026-04-23 18:36 | 28.42497 | -81.28440 | 110 ft | 19 kts | 251° |
| 2026-04-23 18:36 | 28.42451 | -81.28587 | 110 ft | 20 kts | 250° |
| 2026-04-23 18:36 | 28.42401 | -81.28745 | 110 ft | 22 kts | 250° |
| 2026-04-23 18:37 | 28.42348 | -81.28909 | 110 ft | 23 kts | 250° |
| 2026-04-23 18:37 | 28.42301 | -81.29072 | 110 ft | 19 kts | 255° |
| 2026-04-23 18:37 | 28.42286 | -81.29220 | 110 ft | 20 kts | 270° |
| 2026-04-23 18:37 | 28.42286 | -81.29281 | 110 ft | 0 kts | 270° |
| 2026-04-23 18:41 | 28.42286 | -81.29284 | 110 ft | 2 kts | 270° |
| 2026-04-23 18:42 | 28.42286 | -81.29337 | 110 ft | 13 kts | 269° |
| 2026-04-23 18:42 | 28.42285 | -81.29453 | 110 ft | 16 kts | 269° |
| 2026-04-23 18:42 | 28.42284 | -81.29589 | 110 ft | 18 kts | 269° |
| 2026-04-23 18:42 | 28.42311 | -81.29697 | 110 ft | 14 kts | 335° |
| 2026-04-23 18:43 | 28.42414 | -81.29701 | 110 ft | 16 kts | 1° |
| 2026-04-23 18:43 | 28.42525 | -81.29701 | 110 ft | 16 kts | 0° |
| 2026-04-23 18:43 | 28.42632 | -81.29700 | 110 ft | 15 kts | 360° |
| 2026-04-23 18:43 | 28.42745 | -81.29701 | 110 ft | 17 kts | 359° |
| 2026-04-23 18:44 | 28.42866 | -81.29703 | 110 ft | 18 kts | 352° |
| 2026-04-23 18:44 | 28.42913 | -81.29779 | 110 ft | 13 kts | 268° |
| 2026-04-23 18:44 | 28.42920 | -81.29886 | 111 ft | 15 kts | 290° |
| 2026-04-23 18:44 | 28.42969 | -81.29986 | 110 ft | 14 kts | 293° |
| 2026-04-23 18:45 | 28.42973 | -81.30062 | 110 ft | 3 kts | 213° |
| 2026-04-23 18:45 | 28.42955 | -81.30056 | 111 ft | 4 kts | 172° |
| 2026-04-23 18:45 | 28.42931 | -81.30056 | 111 ft | 4 kts | 180° |
| 2026-04-23 18:45 | 28.42907 | -81.30056 | 111 ft | 3 kts | 181° |
| 2026-04-23 18:46 | 28.42896 | -81.30056 | 110 ft | 0 kts | 181° |